Terminal Aerodrome Forecast
Issued by NWS Amarillo, TX

Home | Current Version | Previous Version | Text Only | Print | Product List | Glossary On
Versions: 1 2 3 4 5 6 7 8 9 10 11 12 13 14 15 16 17 18 19 20 21 22 23
000
FTUS44 KAMA 251700
TAFDHT
TAF
KDHT 251720Z 2518/2618 18010KT P6SM SCT070 BKN200
     FM252000 18016G26KT P6SM SCT070 BKN200
     FM260100 15013KT P6SM BKN080
     FM260900 35012KT P6SM SCT010=

USA.gov is the U.S. government's official web portal to all federal, state and local government web resources and services.